sensor_id;sensor_type;location;lat;lon;timestamp;temperature;humidity
35894;DHT22;21994;48.204;16.516;2023-06-01T00:02:25;11.60;99.90
35894;DHT22;21994;48.204;16.516;2023-06-01T00:04:51;11.60;99.90
35894;DHT22;21994;48.204;16.516;2023-06-01T00:07:17;11.50;99.90
35894;DHT22;21994;48.204;16.516;2023-06-01T00:09:43;11.50;99.90
35894;DHT22;21994;48.204;16.516;2023-06-01T00:12:09;11.50;99.90
35894;DHT22;21994;48.204;16.516;2023-06-01T00:14:35;11.40;99.90
35894;DHT22;21994;48.204;16.516;2023-06-01T00:17:01;11.40;99.90
35894;DHT22;21994;48.204;16.516;2023-06-01T00:19:28;11.40;99.90
35894;DHT22;21994;48.204;16.516;2023-06-01T00:21:55;11.40;99.90
35894;DHT22;21994;48.204;16.516;2023-06-01T00:24:22;11.40;99.90
35894;DHT22;21994;48.204;16.516;2023-06-01T00:26:49;11.40;99.90
35894;DHT22;21994;48.204;16.516;2023-06-01T00:29:15;11.30;99.90
35894;DHT22;21994;48.204;16.516;2023-06-01T00:31:41;11.30;99.90
35894;DHT22;21994;48.204;16.516;2023-06-01T00:34:08;11.20;99.90
35894;DHT22;21994;48.204;16.516;2023-06-01T00:36:34;11.20;99.90
35894;DHT22;21994;48.204;16.516;2023-06-01T00:39:00;11.20;99.90
35894;DHT22;21994;48.204;16.516;2023-06-01T00:41:32;11.10;99.90
35894;DHT22;21994;48.204;16.516;2023-06-01T00:43:59;11.10;99.90
35894;DHT22;21994;48.204;16.516;2023-06-01T00:46:26;11.10;99.90
35894;DHT22;21994;48.204;16.516;2023-06-01T00:48:53;11.10;99.90
35894;DHT22;21994;48.204;16.516;2023-06-01T00:51:19;11.10;99.90
35894;DHT22;21994;48.204;16.516;2023-06-01T00:53:45;11.10;99.90
35894;DHT22;21994;48.204;16.516;2023-06-01T00:56:12;11.10;99.90
35894;DHT22;21994;48.204;16.516;2023-06-01T00:58:39;11.10;99.90
35894;DHT22;21994;48.204;16.516;2023-06-01T01:01:06;11.10;99.90
35894;DHT22;21994;48.204;16.516;2023-06-01T01:03:34;11.00;99.90
35894;DHT22;21994;48.204;16.516;2023-06-01T01:06:27;11.00;99.90
35894;DHT22;21994;48.204;16.516;2023-06-01T01:11:37;11.00;99.90
35894;DHT22;21994;48.204;16.516;2023-06-01T01:14:30;10.90;99.90
35894;DHT22;21994;48.204;16.516;2023-06-01T01:19:58;10.90;99.90
35894;DHT22;21994;48.204;16.516;2023-06-01T01:25:59;10.80;99.90
35894;DHT22;21994;48.204;16.516;2023-06-01T01:31:13;10.80;99.90
35894;DHT22;21994;48.204;16.516;2023-06-01T01:33:45;10.80;99.90
35894;DHT22;21994;48.204;16.516;2023-06-01T01:36:12;10.80;99.90
35894;DHT22;21994;48.204;16.516;2023-06-01T01:38:38;10.70;99.90
35894;DHT22;21994;48.204;16.516;2023-06-01T01:41:05;10.70;99.90
35894;DHT22;21994;48.204;16.516;2023-06-01T01:43:31;10.70;99.90
35894;DHT22;21994;48.204;16.516;2023-06-01T01:46:07;10.60;99.90
35894;DHT22;21994;48.204;16.516;2023-06-01T01:52:08;10.60;99.90
35894;DHT22;21994;48.204;16.516;2023-06-01T01:54:49;10.60;99.90
35894;DHT22;21994;48.204;16.516;2023-06-01T01:57:18;10.60;99.90
35894;DHT22;21994;48.204;16.516;2023-06-01T01:59:46;10.60;99.90
35894;DHT22;21994;48.204;16.516;2023-06-01T02:02:12;10.60;99.90
35894;DHT22;21994;48.204;16.516;2023-06-01T02:04:39;10.60;99.90
35894;DHT22;21994;48.204;16.516;2023-06-01T02:07:06;10.50;99.90
35894;DHT22;21994;48.204;16.516;2023-06-01T02:09:33;10.60;99.90
35894;DHT22;21994;48.204;16.516;2023-06-01T02:11:58;10.50;99.90
35894;DHT22;21994;48.204;16.516;2023-06-01T02:14:25;10.50;99.90
35894;DHT22;21994;48.204;16.516;2023-06-01T02:16:51;10.60;99.90
35894;DHT22;21994;48.204;16.516;2023-06-01T02:19:16;10.60;99.90
35894;DHT22;21994;48.204;16.516;2023-06-01T02:21:43;10.50;99.90
35894;DHT22;21994;48.204;16.516;2023-06-01T02:24:08;10.40;99.90
35894;DHT22;21994;48.204;16.516;2023-06-01T02:26:35;10.40;99.90
35894;DHT22;21994;48.204;16.516;2023-06-01T02:29:01;10.40;99.90
35894;DHT22;21994;48.204;16.516;2023-06-01T02:31:36;10.30;99.90
35894;DHT22;21994;48.204;16.516;2023-06-01T02:34:02;10.20;99.90
35894;DHT22;21994;48.204;16.516;2023-06-01T02:36:28;10.20;99.90
35894;DHT22;21994;48.204;16.516;2023-06-01T02:38:55;10.20;99.90
35894;DHT22;21994;48.204;16.516;2023-06-01T02:41:21;10.10;99.90
35894;DHT22;21994;48.204;16.516;2023-06-01T02:43:47;10.10;99.90
35894;DHT22;21994;48.204;16.516;2023-06-01T02:46:16;10.10;99.90
35894;DHT22;21994;48.204;16.516;2023-06-01T02:48:45;10.10;99.90
35894;DHT22;21994;48.204;16.516;2023-06-01T02:51:12;10.00;99.90
35894;DHT22;21994;48.204;16.516;2023-06-01T02:53:42;10.00;99.90
35894;DHT22;21994;48.204;16.516;2023-06-01T02:56:08;10.00;99.90
35894;DHT22;21994;48.204;16.516;2023-06-01T02:58:34;10.00;99.90
35894;DHT22;21994;48.204;16.516;2023-06-01T03:01:00;10.00;99.90
35894;DHT22;21994;48.204;16.516;2023-06-01T03:03:27;10.00;99.90
35894;DHT22;21994;48.204;16.516;2023-06-01T03:05:53;9.90;99.90
35894;DHT22;21994;48.204;16.516;2023-06-01T03:08:20;9.90;99.90
35894;DHT22;21994;48.204;16.516;2023-06-01T03:10:47;9.90;99.90
35894;DHT22;21994;48.204;16.516;2023-06-01T03:13:13;9.90;99.90
35894;DHT22;21994;48.204;16.516;2023-06-01T03:15:39;9.90;99.90
35894;DHT22;21994;48.204;16.516;2023-06-01T03:18:05;9.90;99.90
35894;DHT22;21994;48.204;16.516;2023-06-01T03:20:31;9.90;99.90
35894;DHT22;21994;48.204;16.516;2023-06-01T03:22:58;9.90;99.90
35894;DHT22;21994;48.204;16.516;2023-06-01T03:25:24;9.90;99.90
35894;DHT22;21994;48.204;16.516;2023-06-01T03:27:50;9.90;99.90
35894;DHT22;21994;48.204;16.516;2023-06-01T03:30:16;10.00;99.90
35894;DHT22;21994;48.204;16.516;2023-06-01T03:32:43;9.90;99.90
35894;DHT22;21994;48.204;16.516;2023-06-01T03:35:11;10.00;99.90
35894;DHT22;21994;48.204;16.516;2023-06-01T03:37:39;9.90;99.90
35894;DHT22;21994;48.204;16.516;2023-06-01T03:40:07;10.00;99.90
35894;DHT22;21994;48.204;16.516;2023-06-01T03:45:08;10.00;99.90
35894;DHT22;21994;48.204;16.516;2023-06-01T03:47:35;10.00;99.90
35894;DHT22;21994;48.204;16.516;2023-06-01T03:50:01;10.10;99.90
35894;DHT22;21994;48.204;16.516;2023-06-01T03:52:29;10.10;99.90
35894;DHT22;21994;48.204;16.516;2023-06-01T03:54:57;10.10;99.90
35894;DHT22;21994;48.204;16.516;2023-06-01T03:57:24;10.10;99.90
35894;DHT22;21994;48.204;16.516;2023-06-01T03:59:50;10.10;99.90
35894;DHT22;21994;48.204;16.516;2023-06-01T04:02:17;10.20;99.90
35894;DHT22;21994;48.204;16.516;2023-06-01T04:04:45;10.20;99.90
35894;DHT22;21994;48.204;16.516;2023-06-01T04:07:14;10.30;99.90
35894;DHT22;21994;48.204;16.516;2023-06-01T04:09:44;10.30;99.90
35894;DHT22;21994;48.204;16.516;2023-06-01T04:12:13;10.40;99.90
35894;DHT22;21994;48.204;16.516;2023-06-01T04:14:40;10.40;99.90
35894;DHT22;21994;48.204;16.516;2023-06-01T04:17:06;10.50;99.90
35894;DHT22;21994;48.204;16.516;2023-06-01T04:19:33;10.50;99.90
35894;DHT22;21994;48.204;16.516;2023-06-01T04:22:00;10.60;99.90
35894;DHT22;21994;48.204;16.516;2023-06-01T04:24:26;10.70;99.90
35894;DHT22;21994;48.204;16.516;2023-06-01T04:26:52;10.70;99.90
35894;DHT22;21994;48.204;16.516;2023-06-01T04:29:19;10.80;99.90
35894;DHT22;21994;48.204;16.516;2023-06-01T04:31:48;10.90;99.90
35894;DHT22;21994;48.204;16.516;2023-06-01T04:34:14;11.00;99.90
35894;DHT22;21994;48.204;16.516;2023-06-01T04:36:41;11.20;99.90
35894;DHT22;21994;48.204;16.516;2023-06-01T04:39:07;11.30;99.90
35894;DHT22;21994;48.204;16.516;2023-06-01T04:41:34;11.40;99.90
35894;DHT22;21994;48.204;16.516;2023-06-01T04:44:01;11.70;99.90
35894;DHT22;21994;48.204;16.516;2023-06-01T04:46:31;11.80;99.90
35894;DHT22;21994;48.204;16.516;2023-06-01T04:48:58;12.00;99.90
35894;DHT22;21994;48.204;16.516;2023-06-01T04:51:26;12.10;99.90
35894;DHT22;21994;48.204;16.516;2023-06-01T04:53:53;12.20;99.90
35894;DHT22;21994;48.204;16.516;2023-06-01T04:56:23;12.20;99.90
35894;DHT22;21994;48.204;16.516;2023-06-01T04:58:52;12.30;99.90
35894;DHT22;21994;48.204;16.516;2023-06-01T05:01:21;12.40;99.90
35894;DHT22;21994;48.204;16.516;2023-06-01T05:03:51;12.50;99.90
35894;DHT22;21994;48.204;16.516;2023-06-01T05:06:20;12.80;99.90
35894;DHT22;21994;48.204;16.516;2023-06-01T05:08:46;12.90;99.90
35894;DHT22;21994;48.204;16.516;2023-06-01T05:11:13;13.00;99.90
35894;DHT22;21994;48.204;16.516;2023-06-01T05:13:40;13.10;99.90
35894;DHT22;21994;48.204;16.516;2023-06-01T05:16:07;13.30;99.90
35894;DHT22;21994;48.204;16.516;2023-06-01T05:18:35;13.50;99.90
35894;DHT22;21994;48.204;16.516;2023-06-01T05:21:02;13.50;99.90
35894;DHT22;21994;48.204;16.516;2023-06-01T05:23:28;13.50;99.90
35894;DHT22;21994;48.204;16.516;2023-06-01T05:25:55;13.50;99.90
35894;DHT22;21994;48.204;16.516;2023-06-01T05:28:31;13.50;99.90
35894;DHT22;21994;48.204;16.516;2023-06-01T05:30:58;13.50;99.90
35894;DHT22;21994;48.204;16.516;2023-06-01T05:33:24;13.60;99.90
35894;DHT22;21994;48.204;16.516;2023-06-01T05:35:50;13.70;99.90
35894;DHT22;21994;48.204;16.516;2023-06-01T05:38:16;13.80;99.90
35894;DHT22;21994;48.204;16.516;2023-06-01T05:40:42;13.80;99.90
35894;DHT22;21994;48.204;16.516;2023-06-01T05:43:08;14.00;99.90
35894;DHT22;21994;48.204;16.516;2023-06-01T05:45:34;14.10;99.90
35894;DHT22;21994;48.204;16.516;2023-06-01T05:48:00;14.30;99.90
35894;DHT22;21994;48.204;16.516;2023-06-01T05:50:25;14.40;99.90
35894;DHT22;21994;48.204;16.516;2023-06-01T05:52:51;14.60;99.90
35894;DHT22;21994;48.204;16.516;2023-06-01T05:55:20;14.80;99.90
35894;DHT22;21994;48.204;16.516;2023-06-01T05:57:46;15.00;99.90
35894;DHT22;21994;48.204;16.516;2023-06-01T06:00:14;15.10;99.90
35894;DHT22;21994;48.204;16.516;2023-06-01T06:02:44;15.30;99.90
35894;DHT22;21994;48.204;16.516;2023-06-01T06:05:10;15.50;99.90
35894;DHT22;21994;48.204;16.516;2023-06-01T06:07:37;15.60;99.90
35894;DHT22;21994;48.204;16.516;2023-06-01T06:10:04;15.60;99.90
35894;DHT22;21994;48.204;16.516;2023-06-01T06:12:31;15.70;99.90
35894;DHT22;21994;48.204;16.516;2023-06-01T06:14:56;15.80;99.90
35894;DHT22;21994;48.204;16.516;2023-06-01T06:17:22;16.00;99.90
35894;DHT22;21994;48.204;16.516;2023-06-01T06:19:48;16.10;99.90
35894;DHT22;21994;48.204;16.516;2023-06-01T06:22:15;16.10;99.90
35894;DHT22;21994;48.204;16.516;2023-06-01T06:24:41;16.20;99.90
35894;DHT22;21994;48.204;16.516;2023-06-01T06:27:11;16.50;99.90
35894;DHT22;21994;48.204;16.516;2023-06-01T06:29:36;16.60;99.90
35894;DHT22;21994;48.204;16.516;2023-06-01T06:32:03;16.70;99.90
35894;DHT22;21994;48.204;16.516;2023-06-01T06:34:29;17.00;99.90
35894;DHT22;21994;48.204;16.516;2023-06-01T06:37:02;17.00;99.90
35894;DHT22;21994;48.204;16.516;2023-06-01T06:39:29;17.20;99.90
35894;DHT22;21994;48.204;16.516;2023-06-01T06:41:55;17.50;99.90
35894;DHT22;21994;48.204;16.516;2023-06-01T06:44:21;17.60;99.90
35894;DHT22;21994;48.204;16.516;2023-06-01T06:46:47;17.70;99.90
35894;DHT22;21994;48.204;16.516;2023-06-01T06:49:13;17.80;99.90
35894;DHT22;21994;48.204;16.516;2023-06-01T06:51:39;18.00;99.90
35894;DHT22;21994;48.204;16.516;2023-06-01T06:54:05;18.20;99.90
35894;DHT22;21994;48.204;16.516;2023-06-01T06:56:32;18.40;99.90
35894;DHT22;21994;48.204;16.516;2023-06-01T06:58:58;18.60;99.90
35894;DHT22;21994;48.204;16.516;2023-06-01T07:01:25;18.80;97.60
35894;DHT22;21994;48.204;16.516;2023-06-01T07:03:52;19.20;97.30
35894;DHT22;21994;48.204;16.516;2023-06-01T07:06:18;19.40;96.70
35894;DHT22;21994;48.204;16.516;2023-06-01T07:08:45;19.70;97.40
35894;DHT22;21994;48.204;16.516;2023-06-01T07:11:11;19.90;96.10
35894;DHT22;21994;48.204;16.516;2023-06-01T07:13:37;19.90;95.10
35894;DHT22;21994;48.204;16.516;2023-06-01T07:16:03;20.30;94.50
35894;DHT22;21994;48.204;16.516;2023-06-01T07:18:30;20.60;96.50
35894;DHT22;21994;48.204;16.516;2023-06-01T07:21:01;20.80;94.10
35894;DHT22;21994;48.204;16.516;2023-06-01T07:23:27;21.00;94.20
35894;DHT22;21994;48.204;16.516;2023-06-01T07:25:53;21.30;94.10
35894;DHT22;21994;48.204;16.516;2023-06-01T07:28:18;21.60;94.20
35894;DHT22;21994;48.204;16.516;2023-06-01T07:30:44;22.00;93.20
35894;DHT22;21994;48.204;16.516;2023-06-01T07:33:10;22.20;93.30
35894;DHT22;21994;48.204;16.516;2023-06-01T07:35:37;22.60;92.60
35894;DHT22;21994;48.204;16.516;2023-06-01T07:38:03;22.80;91.90
35894;DHT22;21994;48.204;16.516;2023-06-01T07:40:29;22.80;91.20
35894;DHT22;21994;48.204;16.516;2023-06-01T07:42:56;22.90;91.30
35894;DHT22;21994;48.204;16.516;2023-06-01T07:45:22;22.90;92.30
35894;DHT22;21994;48.204;16.516;2023-06-01T07:47:48;23.40;91.10
35894;DHT22;21994;48.204;16.516;2023-06-01T07:50:13;23.80;91.20
35894;DHT22;21994;48.204;16.516;2023-06-01T07:52:40;24.10;91.20
35894;DHT22;21994;48.204;16.516;2023-06-01T07:55:07;24.30;90.70
35894;DHT22;21994;48.204;16.516;2023-06-01T07:57:35;24.10;90.50
35894;DHT22;21994;48.204;16.516;2023-06-01T08:00:02;24.00;90.90
35894;DHT22;21994;48.204;16.516;2023-06-01T08:02:38;24.10;90.00
35894;DHT22;21994;48.204;16.516;2023-06-01T08:05:04;24.40;91.30
35894;DHT22;21994;48.204;16.516;2023-06-01T08:07:35;24.70;88.00
35894;DHT22;21994;48.204;16.516;2023-06-01T08:10:01;24.80;89.10
35894;DHT22;21994;48.204;16.516;2023-06-01T08:12:28;24.90;89.60
35894;DHT22;21994;48.204;16.516;2023-06-01T08:14:54;25.20;87.10
35894;DHT22;21994;48.204;16.516;2023-06-01T08:17:22;25.40;87.50
35894;DHT22;21994;48.204;16.516;2023-06-01T08:19:48;25.80;89.50
35894;DHT22;21994;48.204;16.516;2023-06-01T08:22:16;25.70;87.00
35894;DHT22;21994;48.204;16.516;2023-06-01T08:24:42;25.90;83.20
35894;DHT22;21994;48.204;16.516;2023-06-01T08:27:19;26.00;85.10
35894;DHT22;21994;48.204;16.516;2023-06-01T08:29:46;26.30;85.20
35894;DHT22;21994;48.204;16.516;2023-06-01T08:32:13;26.50;85.60
35894;DHT22;21994;48.204;16.516;2023-06-01T08:34:40;26.80;83.10
35894;DHT22;21994;48.204;16.516;2023-06-01T08:37:06;27.30;83.00
35894;DHT22;21994;48.204;16.516;2023-06-01T08:39:32;27.60;81.70
35894;DHT22;21994;48.204;16.516;2023-06-01T08:42:34;27.90;79.00
35894;DHT22;21994;48.204;16.516;2023-06-01T08:45:05;28.00;79.10
35894;DHT22;21994;48.204;16.516;2023-06-01T08:47:32;27.40;77.90
35894;DHT22;21994;48.204;16.516;2023-06-01T08:49:59;27.70;77.90
35894;DHT22;21994;48.204;16.516;2023-06-01T08:52:28;28.20;76.60
35894;DHT22;21994;48.204;16.516;2023-06-01T08:54:59;28.40;73.70
35894;DHT22;21994;48.204;16.516;2023-06-01T08:57:25;27.70;79.20
35894;DHT22;21994;48.204;16.516;2023-06-01T08:59:52;27.20;77.40
35894;DHT22;21994;48.204;16.516;2023-06-01T09:02:18;28.20;77.70
35894;DHT22;21994;48.204;16.516;2023-06-01T09:04:45;28.70;77.00
35894;DHT22;21994;48.204;16.516;2023-06-01T09:07:15;29.10;79.80
35894;DHT22;21994;48.204;16.516;2023-06-01T09:09:40;29.30;76.70
35894;DHT22;21994;48.204;16.516;2023-06-01T09:12:25;29.70;74.40
35894;DHT22;21994;48.204;16.516;2023-06-01T09:15:15;29.60;73.10
35894;DHT22;21994;48.204;16.516;2023-06-01T09:17:46;29.60;73.50
35894;DHT22;21994;48.204;16.516;2023-06-01T09:20:14;29.40;72.50
35894;DHT22;21994;48.204;16.516;2023-06-01T09:22:46;29.60;68.60
35894;DHT22;21994;48.204;16.516;2023-06-01T09:25:13;30.10;71.40
35894;DHT22;21994;48.204;16.516;2023-06-01T09:27:43;30.50;71.10
35894;DHT22;21994;48.204;16.516;2023-06-01T09:30:15;30.30;70.50
35894;DHT22;21994;48.204;16.516;2023-06-01T09:32:43;30.30;69.30
35894;DHT22;21994;48.204;16.516;2023-06-01T09:35:13;30.20;73.20
35894;DHT22;21994;48.204;16.516;2023-06-01T09:37:55;29.90;71.60
35894;DHT22;21994;48.204;16.516;2023-06-01T09:40:22;29.60;72.30
35894;DHT22;21994;48.204;16.516;2023-06-01T09:42:48;29.30;74.00
35894;DHT22;21994;48.204;16.516;2023-06-01T09:45:22;29.10;67.30
35894;DHT22;21994;48.204;16.516;2023-06-01T09:47:50;29.70;70.30
35894;DHT22;21994;48.204;16.516;2023-06-01T09:50:38;30.10;67.40
35894;DHT22;21994;48.204;16.516;2023-06-01T09:53:04;30.40;68.90
35894;DHT22;21994;48.204;16.516;2023-06-01T09:55:31;30.50;66.30
35894;DHT22;21994;48.204;16.516;2023-06-01T09:58:21;31.00;65.10
35894;DHT22;21994;48.204;16.516;2023-06-01T10:00:49;31.70;64.20
35894;DHT22;21994;48.204;16.516;2023-06-01T10:03:17;32.20;62.30
35894;DHT22;21994;48.204;16.516;2023-06-01T10:05:45;32.20;62.90
35894;DHT22;21994;48.204;16.516;2023-06-01T10:08:13;32.50;62.00
35894;DHT22;21994;48.204;16.516;2023-06-01T10:10:43;32.40;64.50
35894;DHT22;21994;48.204;16.516;2023-06-01T10:13:10;32.40;65.50
35894;DHT22;21994;48.204;16.516;2023-06-01T10:15:37;32.00;66.60
35894;DHT22;21994;48.204;16.516;2023-06-01T10:18:04;32.00;62.80
35894;DHT22;21994;48.204;16.516;2023-06-01T10:20:35;32.30;61.40
35894;DHT22;21994;48.204;16.516;2023-06-01T10:23:03;32.40;63.20
35894;DHT22;21994;48.204;16.516;2023-06-01T10:25:42;32.70;62.00
35894;DHT22;21994;48.204;16.516;2023-06-01T10:28:11;32.80;60.20
35894;DHT22;21994;48.204;16.516;2023-06-01T10:30:38;32.70;60.30
35894;DHT22;21994;48.204;16.516;2023-06-01T10:33:04;32.50;59.70
35894;DHT22;21994;48.204;16.516;2023-06-01T10:40:36;33.30;60.40
35894;DHT22;21994;48.204;16.516;2023-06-01T10:43:06;33.90;57.40
35894;DHT22;21994;48.204;16.516;2023-06-01T10:45:38;34.30;61.60
35894;DHT22;21994;48.204;16.516;2023-06-01T10:48:10;34.30;60.00
35894;DHT22;21994;48.204;16.516;2023-06-01T10:50:41;33.70;57.90
35894;DHT22;21994;48.204;16.516;2023-06-01T10:53:30;33.60;58.90
35894;DHT22;21994;48.204;16.516;2023-06-01T10:56:32;33.20;59.60
35894;DHT22;21994;48.204;16.516;2023-06-01T11:01:37;33.40;62.00
35894;DHT22;21994;48.204;16.516;2023-06-01T11:04:04;33.60;56.20
35894;DHT22;21994;48.204;16.516;2023-06-01T11:06:40;33.30;62.20
35894;DHT22;21994;48.204;16.516;2023-06-01T11:09:09;33.30;57.80
35894;DHT22;21994;48.204;16.516;2023-06-01T11:14:19;32.80;60.50
35894;DHT22;21994;48.204;16.516;2023-06-01T11:16:49;32.30;55.40
35894;DHT22;21994;48.204;16.516;2023-06-01T11:21:46;32.70;61.30
35894;DHT22;21994;48.204;16.516;2023-06-01T11:24:14;32.10;59.30
35894;DHT22;21994;48.204;16.516;2023-06-01T11:26:43;32.40;59.40
35894;DHT22;21994;48.204;16.516;2023-06-01T11:31:57;31.10;60.80
35894;DHT22;21994;48.204;16.516;2023-06-01T11:34:33;31.10;62.70
35894;DHT22;21994;48.204;16.516;2023-06-01T11:37:16;30.60;60.30
35894;DHT22;21994;48.204;16.516;2023-06-01T11:39:46;30.40;62.80
35894;DHT22;21994;48.204;16.516;2023-06-01T11:42:17;30.30;62.70
35894;DHT22;21994;48.204;16.516;2023-06-01T11:44:58;30.30;61.70
35894;DHT22;21994;48.204;16.516;2023-06-01T11:47:28;30.30;61.70
35894;DHT22;21994;48.204;16.516;2023-06-01T11:49:55;30.30;59.60
35894;DHT22;21994;48.204;16.516;2023-06-01T11:52:21;30.30;64.20
35894;DHT22;21994;48.204;16.516;2023-06-01T11:54:47;30.20;63.10
35894;DHT22;21994;48.204;16.516;2023-06-01T11:57:14;30.20;60.20
35894;DHT22;21994;48.204;16.516;2023-06-01T11:59:43;30.30;60.20
35894;DHT22;21994;48.204;16.516;2023-06-01T12:02:23;30.20;58.70
35894;DHT22;21994;48.204;16.516;2023-06-01T12:07:27;30.00;68.20
35894;DHT22;21994;48.204;16.516;2023-06-01T12:09:54;30.00;65.00
35894;DHT22;21994;48.204;16.516;2023-06-01T12:12:24;29.90;62.60
35894;DHT22;21994;48.204;16.516;2023-06-01T12:14:51;30.20;63.60
35894;DHT22;21994;48.204;16.516;2023-06-01T12:17:18;29.80;62.40
35894;DHT22;21994;48.204;16.516;2023-06-01T12:19:45;30.30;68.20
35894;DHT22;21994;48.204;16.516;2023-06-01T12:22:13;30.80;65.60
35894;DHT22;21994;48.204;16.516;2023-06-01T12:24:40;31.10;67.60
35894;DHT22;21994;48.204;16.516;2023-06-01T12:27:14;31.20;67.50
35894;DHT22;21994;48.204;16.516;2023-06-01T12:29:43;31.30;63.80
35894;DHT22;21994;48.204;16.516;2023-06-01T12:32:12;31.10;60.00
35894;DHT22;21994;48.204;16.516;2023-06-01T12:34:41;30.90;61.00
35894;DHT22;21994;48.204;16.516;2023-06-01T12:39:39;30.30;63.20
35894;DHT22;21994;48.204;16.516;2023-06-01T12:42:07;30.20;63.00
35894;DHT22;21994;48.204;16.516;2023-06-01T12:44:34;30.00;65.50
35894;DHT22;21994;48.204;16.516;2023-06-01T12:47:01;30.10;63.30
35894;DHT22;21994;48.204;16.516;2023-06-01T12:49:27;30.10;61.90
35894;DHT22;21994;48.204;16.516;2023-06-01T12:51:54;30.20;61.20
35894;DHT22;21994;48.204;16.516;2023-06-01T12:54:20;30.20;62.40
35894;DHT22;21994;48.204;16.516;2023-06-01T12:56:50;30.00;60.80
35894;DHT22;21994;48.204;16.516;2023-06-01T12:59:16;30.00;63.20
35894;DHT22;21994;48.204;16.516;2023-06-01T13:01:43;30.00;65.30
35894;DHT22;21994;48.204;16.516;2023-06-01T13:04:09;29.90;61.20
35894;DHT22;21994;48.204;16.516;2023-06-01T13:06:35;30.00;61.70
35894;DHT22;21994;48.204;16.516;2023-06-01T13:09:04;29.90;62.90
35894;DHT22;21994;48.204;16.516;2023-06-01T13:11:30;29.90;61.80
35894;DHT22;21994;48.204;16.516;2023-06-01T13:13:56;29.80;64.60
35894;DHT22;21994;48.204;16.516;2023-06-01T13:16:23;29.90;64.20
35894;DHT22;21994;48.204;16.516;2023-06-01T13:18:49;30.00;64.80
35894;DHT22;21994;48.204;16.516;2023-06-01T13:21:17;29.90;65.30
35894;DHT22;21994;48.204;16.516;2023-06-01T13:23:43;30.00;68.80
35894;DHT22;21994;48.204;16.516;2023-06-01T13:26:10;30.20;67.60
35894;DHT22;21994;48.204;16.516;2023-06-01T13:28:36;30.20;63.40
35894;DHT22;21994;48.204;16.516;2023-06-01T13:31:02;30.20;68.80
35894;DHT22;21994;48.204;16.516;2023-06-01T13:33:29;30.00;65.50
35894;DHT22;21994;48.204;16.516;2023-06-01T13:35:55;30.20;65.00
35894;DHT22;21994;48.204;16.516;2023-06-01T13:38:21;30.40;66.20
35894;DHT22;21994;48.204;16.516;2023-06-01T13:40:47;29.90;63.90
35894;DHT22;21994;48.204;16.516;2023-06-01T13:43:13;29.80;64.40
35894;DHT22;21994;48.204;16.516;2023-06-01T13:45:39;29.50;62.70
35894;DHT22;21994;48.204;16.516;2023-06-01T13:48:15;29.70;67.60
35894;DHT22;21994;48.204;16.516;2023-06-01T13:50:41;29.80;63.90
35894;DHT22;21994;48.204;16.516;2023-06-01T13:53:06;29.80;64.90
35894;DHT22;21994;48.204;16.516;2023-06-01T13:55:33;29.40;64.70
35894;DHT22;21994;48.204;16.516;2023-06-01T13:58:00;29.70;67.80
35894;DHT22;21994;48.204;16.516;2023-06-01T14:00:25;29.80;67.60
35894;DHT22;21994;48.204;16.516;2023-06-01T14:02:53;29.90;68.60
35894;DHT22;21994;48.204;16.516;2023-06-01T14:05:19;29.90;65.60
35894;DHT22;21994;48.204;16.516;2023-06-01T14:07:45;29.80;64.30
35894;DHT22;21994;48.204;16.516;2023-06-01T14:10:11;29.80;63.70
35894;DHT22;21994;48.204;16.516;2023-06-01T14:12:39;29.80;63.40
35894;DHT22;21994;48.204;16.516;2023-06-01T14:15:06;29.90;63.70
35894;DHT22;21994;48.204;16.516;2023-06-01T14:17:32;29.80;65.00
35894;DHT22;21994;48.204;16.516;2023-06-01T14:19:58;29.80;66.40
35894;DHT22;21994;48.204;16.516;2023-06-01T14:22:24;29.80;62.50
35894;DHT22;21994;48.204;16.516;2023-06-01T14:24:50;29.80;63.80
35894;DHT22;21994;48.204;16.516;2023-06-01T14:27:16;29.90;63.40
35894;DHT22;21994;48.204;16.516;2023-06-01T14:29:42;29.90;61.40
35894;DHT22;21994;48.204;16.516;2023-06-01T14:32:08;29.80;62.40
35894;DHT22;21994;48.204;16.516;2023-06-01T14:34:34;29.70;62.00
35894;DHT22;21994;48.204;16.516;2023-06-01T14:37:00;29.70;61.60
35894;DHT22;21994;48.204;16.516;2023-06-01T14:39:26;29.20;64.90
35894;DHT22;21994;48.204;16.516;2023-06-01T14:41:53;29.40;62.60
35894;DHT22;21994;48.204;16.516;2023-06-01T14:44:19;29.60;61.60
35894;DHT22;21994;48.204;16.516;2023-06-01T14:46:45;29.80;64.10
35894;DHT22;21994;48.204;16.516;2023-06-01T14:49:12;29.80;62.10
35894;DHT22;21994;48.204;16.516;2023-06-01T14:51:37;29.80;63.80
35894;DHT22;21994;48.204;16.516;2023-06-01T14:54:03;29.80;66.50
35894;DHT22;21994;48.204;16.516;2023-06-01T14:56:29;29.80;61.10
35894;DHT22;21994;48.204;16.516;2023-06-01T14:58:56;29.90;62.10
35894;DHT22;21994;48.204;16.516;2023-06-01T15:01:22;29.90;63.30
35894;DHT22;21994;48.204;16.516;2023-06-01T15:03:49;29.90;62.20
35894;DHT22;21994;48.204;16.516;2023-06-01T15:06:15;30.10;65.00
35894;DHT22;21994;48.204;16.516;2023-06-01T15:08:41;30.00;64.00
35894;DHT22;21994;48.204;16.516;2023-06-01T15:11:07;30.20;60.70
35894;DHT22;21994;48.204;16.516;2023-06-01T15:13:33;30.40;66.40
35894;DHT22;21994;48.204;16.516;2023-06-01T15:15:58;30.30;61.90
35894;DHT22;21994;48.204;16.516;2023-06-01T15:18:24;30.40;62.10
35894;DHT22;21994;48.204;16.516;2023-06-01T15:20:50;30.30;60.10
35894;DHT22;21994;48.204;16.516;2023-06-01T15:23:18;30.20;66.40
35894;DHT22;21994;48.204;16.516;2023-06-01T15:25:44;30.30;62.00
35894;DHT22;21994;48.204;16.516;2023-06-01T15:28:11;30.20;65.20
35894;DHT22;21994;48.204;16.516;2023-06-01T15:30:37;30.40;63.20
35894;DHT22;21994;48.204;16.516;2023-06-01T15:33:03;30.30;63.20
35894;DHT22;21994;48.204;16.516;2023-06-01T15:35:29;30.20;66.30
35894;DHT22;21994;48.204;16.516;2023-06-01T15:37:55;30.20;64.20
35894;DHT22;21994;48.204;16.516;2023-06-01T15:40:21;30.00;63.70
35894;DHT22;21994;48.204;16.516;2023-06-01T15:42:47;29.90;64.60
35894;DHT22;21994;48.204;16.516;2023-06-01T15:45:12;30.00;66.10
35894;DHT22;21994;48.204;16.516;2023-06-01T15:47:38;30.00;65.40
35894;DHT22;21994;48.204;16.516;2023-06-01T15:50:05;29.80;65.00
35894;DHT22;21994;48.204;16.516;2023-06-01T15:52:31;29.70;66.70
35894;DHT22;21994;48.204;16.516;2023-06-01T15:54:57;29.80;64.70
35894;DHT22;21994;48.204;16.516;2023-06-01T15:57:23;29.90;65.10
35894;DHT22;21994;48.204;16.516;2023-06-01T15:59:49;29.90;64.30
35894;DHT22;21994;48.204;16.516;2023-06-01T16:02:15;29.90;61.00